sensor_id;sensor_type;location;lat;lon;timestamp;temperature;humidity
40538;DHT22;27925;41.874;12.526;2022-09-09T00:02:28;27.20;97.20
40538;DHT22;27925;41.874;12.526;2022-09-09T00:07:49;27.10;97.80
40538;DHT22;27925;41.874;12.526;2022-09-09T00:10:24;27.10;97.90
40538;DHT22;27925;41.874;12.526;2022-09-09T00:15:49;27.10;98.00
40538;DHT22;27925;41.874;12.526;2022-09-09T00:18:32;27.10;98.20
40538;DHT22;27925;41.874;12.526;2022-09-09T00:21:14;27.00;98.30
40538;DHT22;27925;41.874;12.526;2022-09-09T00:23:54;27.00;98.40
40538;DHT22;27925;41.874;12.526;2022-09-09T00:26:45;27.00;98.50
40538;DHT22;27925;41.874;12.526;2022-09-09T00:32:05;26.90;98.70
40538;DHT22;27925;41.874;12.526;2022-09-09T00:34:34;27.00;98.70
40538;DHT22;27925;41.874;12.526;2022-09-09T00:37:02;27.00;98.80
40538;DHT22;27925;41.874;12.526;2022-09-09T00:39:38;27.00;98.80
40538;DHT22;27925;41.874;12.526;2022-09-09T00:42:25;27.00;98.80
40538;DHT22;27925;41.874;12.526;2022-09-09T00:47:39;27.00;98.80
40538;DHT22;27925;41.874;12.526;2022-09-09T00:50:15;27.00;99.00
40538;DHT22;27925;41.874;12.526;2022-09-09T00:58:08;26.90;99.30
40538;DHT22;27925;41.874;12.526;2022-09-09T01:00:50;26.90;99.10
40538;DHT22;27925;41.874;12.526;2022-09-09T01:11:37;26.80;99.30
40538;DHT22;27925;41.874;12.526;2022-09-09T01:16:54;26.80;99.70
40538;DHT22;27925;41.874;12.526;2022-09-09T01:19:32;26.80;99.50
40538;DHT22;27925;41.874;12.526;2022-09-09T01:27:47;26.80;99.60
40538;DHT22;27925;41.874;12.526;2022-09-09T01:30:16;26.70;99.70
40538;DHT22;27925;41.874;12.526;2022-09-09T01:37:57;26.80;99.90
40538;DHT22;27925;41.874;12.526;2022-09-09T01:40:24;26.80;99.90
40538;DHT22;27925;41.874;12.526;2022-09-09T01:42:50;26.80;99.80
40538;DHT22;27925;41.874;12.526;2022-09-09T01:45:16;26.80;99.60
40538;DHT22;27925;41.874;12.526;2022-09-09T01:47:42;26.80;99.60
40538;DHT22;27925;41.874;12.526;2022-09-09T01:50:10;26.80;99.40
40538;DHT22;27925;41.874;12.526;2022-09-09T01:52:37;26.80;99.20
40538;DHT22;27925;41.874;12.526;2022-09-09T01:55:04;26.70;98.70
40538;DHT22;27925;41.874;12.526;2022-09-09T01:57:36;26.70;97.70
40538;DHT22;27925;41.874;12.526;2022-09-09T02:00:11;26.60;96.10
40538;DHT22;27925;41.874;12.526;2022-09-09T02:03:00;26.60;95.20
40538;DHT22;27925;41.874;12.526;2022-09-09T02:05:44;26.60;93.80
40538;DHT22;27925;41.874;12.526;2022-09-09T02:08:24;26.60;92.30
40538;DHT22;27925;41.874;12.526;2022-09-09T02:13:38;26.50;91.30
40538;DHT22;27925;41.874;12.526;2022-09-09T02:21:18;26.50;88.80
40538;DHT22;27925;41.874;12.526;2022-09-09T02:23:46;26.50;88.70
40538;DHT22;27925;41.874;12.526;2022-09-09T02:26:13;26.50;88.20
40538;DHT22;27925;41.874;12.526;2022-09-09T02:28:46;26.40;88.20
40538;DHT22;27925;41.874;12.526;2022-09-09T02:31:13;26.40;87.90
40538;DHT22;27925;41.874;12.526;2022-09-09T02:33:45;26.40;87.60
40538;DHT22;27925;41.874;12.526;2022-09-09T02:36:14;26.30;87.40
40538;DHT22;27925;41.874;12.526;2022-09-09T02:38:46;26.30;87.90
40538;DHT22;27925;41.874;12.526;2022-09-09T02:41:20;26.30;87.60
40538;DHT22;27925;41.874;12.526;2022-09-09T02:43:48;26.30;88.10
40538;DHT22;27925;41.874;12.526;2022-09-09T02:52:16;26.10;88.40
40538;DHT22;27925;41.874;12.526;2022-09-09T02:54:44;26.20;88.40
40538;DHT22;27925;41.874;12.526;2022-09-09T02:57:20;26.20;87.60
40538;DHT22;27925;41.874;12.526;2022-09-09T02:59:47;26.30;87.50
40538;DHT22;27925;41.874;12.526;2022-09-09T03:02:13;26.20;87.30
40538;DHT22;27925;41.874;12.526;2022-09-09T03:04:39;26.20;87.50
40538;DHT22;27925;41.874;12.526;2022-09-09T03:07:07;26.20;87.50
40538;DHT22;27925;41.874;12.526;2022-09-09T03:09:32;26.20;87.50
40538;DHT22;27925;41.874;12.526;2022-09-09T03:11:58;26.10;87.80
40538;DHT22;27925;41.874;12.526;2022-09-09T03:14:24;26.10;88.10
40538;DHT22;27925;41.874;12.526;2022-09-09T03:16:53;26.10;88.40
40538;DHT22;27925;41.874;12.526;2022-09-09T03:19:19;26.10;88.10
40538;DHT22;27925;41.874;12.526;2022-09-09T03:21:46;26.20;88.20
40538;DHT22;27925;41.874;12.526;2022-09-09T03:24:13;26.20;88.60
40538;DHT22;27925;41.874;12.526;2022-09-09T03:26:39;26.20;88.90
40538;DHT22;27925;41.874;12.526;2022-09-09T03:29:07;26.20;89.20
40538;DHT22;27925;41.874;12.526;2022-09-09T03:31:33;26.20;89.40
40538;DHT22;27925;41.874;12.526;2022-09-09T03:33:59;26.20;89.60
40538;DHT22;27925;41.874;12.526;2022-09-09T03:36:26;26.20;89.70
40538;DHT22;27925;41.874;12.526;2022-09-09T03:38:52;26.20;89.80
40538;DHT22;27925;41.874;12.526;2022-09-09T03:41:20;26.10;89.90
40538;DHT22;27925;41.874;12.526;2022-09-09T03:43:47;26.10;90.10
40538;DHT22;27925;41.874;12.526;2022-09-09T03:46:13;26.10;90.20
40538;DHT22;27925;41.874;12.526;2022-09-09T03:48:38;26.20;90.20
40538;DHT22;27925;41.874;12.526;2022-09-09T03:51:04;26.20;90.20
40538;DHT22;27925;41.874;12.526;2022-09-09T03:53:30;26.20;90.20
40538;DHT22;27925;41.874;12.526;2022-09-09T03:55:57;26.20;90.30
40538;DHT22;27925;41.874;12.526;2022-09-09T03:58:25;26.20;90.50
40538;DHT22;27925;41.874;12.526;2022-09-09T04:03:25;26.20;91.10
40538;DHT22;27925;41.874;12.526;2022-09-09T04:05:53;26.20;91.30
40538;DHT22;27925;41.874;12.526;2022-09-09T04:08:20;26.20;91.70
40538;DHT22;27925;41.874;12.526;2022-09-09T04:10:50;26.20;92.00
40538;DHT22;27925;41.874;12.526;2022-09-09T04:13:17;26.10;92.40
40538;DHT22;27925;41.874;12.526;2022-09-09T04:15:53;26.10;92.50
40538;DHT22;27925;41.874;12.526;2022-09-09T04:18:19;26.10;92.60
40538;DHT22;27925;41.874;12.526;2022-09-09T04:20:47;26.10;92.80
40538;DHT22;27925;41.874;12.526;2022-09-09T04:23:13;26.10;93.00
40538;DHT22;27925;41.874;12.526;2022-09-09T04:25:46;26.00;93.20
40538;DHT22;27925;41.874;12.526;2022-09-09T04:28:16;25.90;93.20
40538;DHT22;27925;41.874;12.526;2022-09-09T04:30:42;25.90;93.70
40538;DHT22;27925;41.874;12.526;2022-09-09T04:33:09;25.90;93.40
40538;DHT22;27925;41.874;12.526;2022-09-09T04:35:37;25.90;93.40
40538;DHT22;27925;41.874;12.526;2022-09-09T04:38:04;25.90;93.40
40538;DHT22;27925;41.874;12.526;2022-09-09T04:40:32;25.90;93.30
40538;DHT22;27925;41.874;12.526;2022-09-09T04:43:00;25.90;93.30
40538;DHT22;27925;41.874;12.526;2022-09-09T04:45:27;25.90;93.30
40538;DHT22;27925;41.874;12.526;2022-09-09T04:47:53;25.90;93.30
40538;DHT22;27925;41.874;12.526;2022-09-09T04:50:19;25.90;93.20
40538;DHT22;27925;41.874;12.526;2022-09-09T04:52:45;25.90;93.10
40538;DHT22;27925;41.874;12.526;2022-09-09T04:55:10;25.90;93.20
40538;DHT22;27925;41.874;12.526;2022-09-09T04:57:38;25.80;93.40
40538;DHT22;27925;41.874;12.526;2022-09-09T05:00:04;25.80;93.40
40538;DHT22;27925;41.874;12.526;2022-09-09T05:02:30;25.90;93.40
40538;DHT22;27925;41.874;12.526;2022-09-09T05:04:57;25.90;93.40
40538;DHT22;27925;41.874;12.526;2022-09-09T05:07:26;25.90;93.30
40538;DHT22;27925;41.874;12.526;2022-09-09T05:09:52;25.90;93.30
40538;DHT22;27925;41.874;12.526;2022-09-09T05:12:18;25.90;93.20
40538;DHT22;27925;41.874;12.526;2022-09-09T05:14:44;25.90;93.20
40538;DHT22;27925;41.874;12.526;2022-09-09T05:17:10;25.90;93.10
40538;DHT22;27925;41.874;12.526;2022-09-09T05:19:37;25.90;93.20
40538;DHT22;27925;41.874;12.526;2022-09-09T05:22:02;26.00;93.10
40538;DHT22;27925;41.874;12.526;2022-09-09T05:24:29;26.00;93.00
40538;DHT22;27925;41.874;12.526;2022-09-09T05:26:59;26.00;93.00
40538;DHT22;27925;41.874;12.526;2022-09-09T05:29:27;26.00;93.20
40538;DHT22;27925;41.874;12.526;2022-09-09T05:31:53;26.00;93.00
40538;DHT22;27925;41.874;12.526;2022-09-09T05:34:19;26.00;92.90
40538;DHT22;27925;41.874;12.526;2022-09-09T05:36:46;26.10;92.90
40538;DHT22;27925;41.874;12.526;2022-09-09T05:39:12;26.10;92.90
40538;DHT22;27925;41.874;12.526;2022-09-09T05:41:38;26.10;92.90
40538;DHT22;27925;41.874;12.526;2022-09-09T05:44:04;26.10;93.00
40538;DHT22;27925;41.874;12.526;2022-09-09T05:46:30;26.20;92.90
40538;DHT22;27925;41.874;12.526;2022-09-09T05:48:56;26.20;92.90
40538;DHT22;27925;41.874;12.526;2022-09-09T05:51:26;26.30;92.80
40538;DHT22;27925;41.874;12.526;2022-09-09T05:53:53;26.40;92.70
40538;DHT22;27925;41.874;12.526;2022-09-09T05:56:22;26.50;92.50
40538;DHT22;27925;41.874;12.526;2022-09-09T05:58:50;26.70;92.30
40538;DHT22;27925;41.874;12.526;2022-09-09T06:01:19;26.90;91.90
40538;DHT22;27925;41.874;12.526;2022-09-09T06:03:46;27.00;91.50
40538;DHT22;27925;41.874;12.526;2022-09-09T06:06:18;27.10;90.90
40538;DHT22;27925;41.874;12.526;2022-09-09T06:08:46;27.30;91.00
40538;DHT22;27925;41.874;12.526;2022-09-09T06:11:23;27.50;90.50
40538;DHT22;27925;41.874;12.526;2022-09-09T06:13:50;27.60;90.20
40538;DHT22;27925;41.874;12.526;2022-09-09T06:16:24;27.80;89.30
40538;DHT22;27925;41.874;12.526;2022-09-09T06:18:51;27.90;88.70
40538;DHT22;27925;41.874;12.526;2022-09-09T06:21:22;28.00;88.20
40538;DHT22;27925;41.874;12.526;2022-09-09T06:23:48;28.10;87.60
40538;DHT22;27925;41.874;12.526;2022-09-09T06:26:25;28.30;87.20
40538;DHT22;27925;41.874;12.526;2022-09-09T06:28:53;28.40;87.30
40538;DHT22;27925;41.874;12.526;2022-09-09T06:31:21;28.60;85.80
40538;DHT22;27925;41.874;12.526;2022-09-09T06:33:48;28.60;85.70
40538;DHT22;27925;41.874;12.526;2022-09-09T06:36:28;28.60;86.20
40538;DHT22;27925;41.874;12.526;2022-09-09T06:38:56;28.70;86.40
40538;DHT22;27925;41.874;12.526;2022-09-09T06:41:25;28.80;87.20
40538;DHT22;27925;41.874;12.526;2022-09-09T06:43:51;29.00;86.10
40538;DHT22;27925;41.874;12.526;2022-09-09T06:48:45;29.00;86.50
40538;DHT22;27925;41.874;12.526;2022-09-09T06:51:16;29.20;86.50
40538;DHT22;27925;41.874;12.526;2022-09-09T06:53:44;29.30;87.50
40538;DHT22;27925;41.874;12.526;2022-09-09T06:58:45;29.40;86.30
40538;DHT22;27925;41.874;12.526;2022-09-09T07:01:13;29.60;85.80
40538;DHT22;27925;41.874;12.526;2022-09-09T07:03:40;29.70;85.30
40538;DHT22;27925;41.874;12.526;2022-09-09T07:06:08;29.80;85.50
40538;DHT22;27925;41.874;12.526;2022-09-09T07:08:34;29.80;89.30
40538;DHT22;27925;41.874;12.526;2022-09-09T07:11:04;29.90;88.00
40538;DHT22;27925;41.874;12.526;2022-09-09T07:13:31;30.00;88.10
40538;DHT22;27925;41.874;12.526;2022-09-09T07:16:07;29.90;88.40
40538;DHT22;27925;41.874;12.526;2022-09-09T07:18:34;29.90;85.60
40538;DHT22;27925;41.874;12.526;2022-09-09T07:21:01;30.00;84.80
40538;DHT22;27925;41.874;12.526;2022-09-09T07:23:28;29.90;84.80
40538;DHT22;27925;41.874;12.526;2022-09-09T07:25:54;29.90;85.00
40538;DHT22;27925;41.874;12.526;2022-09-09T07:28:20;30.00;84.10
40538;DHT22;27925;41.874;12.526;2022-09-09T07:31:00;30.10;85.70
40538;DHT22;27925;41.874;12.526;2022-09-09T07:33:31;30.30;82.20
40538;DHT22;27925;41.874;12.526;2022-09-09T07:36:07;30.50;81.70
40538;DHT22;27925;41.874;12.526;2022-09-09T07:38:41;30.70;80.50
40538;DHT22;27925;41.874;12.526;2022-09-09T07:41:14;30.90;79.90
40538;DHT22;27925;41.874;12.526;2022-09-09T07:43:43;31.00;79.60
40538;DHT22;27925;41.874;12.526;2022-09-09T07:46:10;30.90;79.50
40538;DHT22;27925;41.874;12.526;2022-09-09T07:48:36;30.80;79.20
40538;DHT22;27925;41.874;12.526;2022-09-09T07:51:07;30.90;79.00
40538;DHT22;27925;41.874;12.526;2022-09-09T07:53:34;30.90;78.50
40538;DHT22;27925;41.874;12.526;2022-09-09T07:56:10;30.80;78.10
40538;DHT22;27925;41.874;12.526;2022-09-09T07:58:37;30.80;78.20
40538;DHT22;27925;41.874;12.526;2022-09-09T08:01:10;30.80;78.10
40538;DHT22;27925;41.874;12.526;2022-09-09T08:03:37;30.70;77.30
40538;DHT22;27925;41.874;12.526;2022-09-09T08:06:04;30.60;77.70
40538;DHT22;27925;41.874;12.526;2022-09-09T08:08:32;30.50;77.70
40538;DHT22;27925;41.874;12.526;2022-09-09T08:13:36;30.40;77.20
40538;DHT22;27925;41.874;12.526;2022-09-09T08:16:14;30.40;77.10
40538;DHT22;27925;41.874;12.526;2022-09-09T08:18:40;30.30;76.60
40538;DHT22;27925;41.874;12.526;2022-09-09T08:21:12;30.20;76.80
40538;DHT22;27925;41.874;12.526;2022-09-09T08:23:41;30.20;76.60
40538;DHT22;27925;41.874;12.526;2022-09-09T08:26:20;30.30;76.60
40538;DHT22;27925;41.874;12.526;2022-09-09T08:28:51;30.30;75.70
40538;DHT22;27925;41.874;12.526;2022-09-09T08:31:25;30.30;75.60
40538;DHT22;27925;41.874;12.526;2022-09-09T08:33:51;30.40;74.80
40538;DHT22;27925;41.874;12.526;2022-09-09T08:36:20;30.50;75.10
40538;DHT22;27925;41.874;12.526;2022-09-09T08:38:50;30.50;75.00
40538;DHT22;27925;41.874;12.526;2022-09-09T08:58:21;30.40;73.30
40538;DHT22;27925;41.874;12.526;2022-09-09T09:12:01;30.30;69.40
40538;DHT22;27925;41.874;12.526;2022-09-09T09:14:34;30.40;69.30
40538;DHT22;27925;41.874;12.526;2022-09-09T09:17:06;30.40;68.80
40538;DHT22;27925;41.874;12.526;2022-09-09T09:19:35;30.30;69.50
40538;DHT22;27925;41.874;12.526;2022-09-09T09:30:00;30.30;70.80
40538;DHT22;27925;41.874;12.526;2022-09-09T09:32:30;30.40;70.50
40538;DHT22;27925;41.874;12.526;2022-09-09T09:34:59;30.40;69.40
40538;DHT22;27925;41.874;12.526;2022-09-09T09:37:33;30.40;69.00
40538;DHT22;27925;41.874;12.526;2022-09-09T09:40:10;30.30;67.80
40538;DHT22;27925;41.874;12.526;2022-09-09T09:42:37;30.40;68.70
40538;DHT22;27925;41.874;12.526;2022-09-09T09:48:04;30.50;67.80
40538;DHT22;27925;41.874;12.526;2022-09-09T09:50:30;30.50;68.10
40538;DHT22;27925;41.874;12.526;2022-09-09T09:53:04;30.60;67.10
40538;DHT22;27925;41.874;12.526;2022-09-09T09:55:30;30.60;66.40
40538;DHT22;27925;41.874;12.526;2022-09-09T09:58:04;30.70;63.80
40538;DHT22;27925;41.874;12.526;2022-09-09T10:00:30;30.70;64.20
40538;DHT22;27925;41.874;12.526;2022-09-09T10:02:56;30.70;61.70
40538;DHT22;27925;41.874;12.526;2022-09-09T10:05:30;30.70;64.40
40538;DHT22;27925;41.874;12.526;2022-09-09T10:08:11;30.70;63.10
40538;DHT22;27925;41.874;12.526;2022-09-09T10:29:22;31.20;58.90
40538;DHT22;27925;41.874;12.526;2022-09-09T10:34:56;31.20;58.10
40538;DHT22;27925;41.874;12.526;2022-09-09T10:43:46;31.60;57.40
40538;DHT22;27925;41.874;12.526;2022-09-09T10:56:44;32.10;55.80
40538;DHT22;27925;41.874;12.526;2022-09-09T10:59:29;32.20;55.50
40538;DHT22;27925;41.874;12.526;2022-09-09T11:02:16;32.40;53.90
40538;DHT22;27925;41.874;12.526;2022-09-09T11:04:55;32.60;53.40
40538;DHT22;27925;41.874;12.526;2022-09-09T11:07:49;32.70;52.90
40538;DHT22;27925;41.874;12.526;2022-09-09T11:10:40;32.90;53.60
40538;DHT22;27925;41.874;12.526;2022-09-09T11:13:16;32.90;52.80
40538;DHT22;27925;41.874;12.526;2022-09-09T11:15:52;33.00;52.70
40538;DHT22;27925;41.874;12.526;2022-09-09T11:18:21;33.00;52.40
40538;DHT22;27925;41.874;12.526;2022-09-09T11:21:00;33.00;53.10
40538;DHT22;27925;41.874;12.526;2022-09-09T11:23:41;33.10;51.00
40538;DHT22;27925;41.874;12.526;2022-09-09T11:26:18;33.00;51.80
40538;DHT22;27925;41.874;12.526;2022-09-09T11:29:08;33.00;52.90
40538;DHT22;27925;41.874;12.526;2022-09-09T11:34:42;32.40;50.40
40538;DHT22;27925;41.874;12.526;2022-09-09T11:37:17;32.00;52.60
40538;DHT22;27925;41.874;12.526;2022-09-09T11:42:24;31.80;51.60
40538;DHT22;27925;41.874;12.526;2022-09-09T11:44:51;31.80;52.80
40538;DHT22;27925;41.874;12.526;2022-09-09T11:47:37;31.90;53.00
40538;DHT22;27925;41.874;12.526;2022-09-09T11:52:42;32.20;50.60
40538;DHT22;27925;41.874;12.526;2022-09-09T11:55:30;32.20;48.70
40538;DHT22;27925;41.874;12.526;2022-09-09T12:00:42;32.00;47.10
40538;DHT22;27925;41.874;12.526;2022-09-09T12:03:49;32.00;48.40
40538;DHT22;27925;41.874;12.526;2022-09-09T12:06:25;32.10;48.90
40538;DHT22;27925;41.874;12.526;2022-09-09T12:08:57;32.20;49.40
40538;DHT22;27925;41.874;12.526;2022-09-09T12:11:25;32.30;48.90
40538;DHT22;27925;41.874;12.526;2022-09-09T12:13:56;32.30;48.90
40538;DHT22;27925;41.874;12.526;2022-09-09T12:16:34;32.30;48.90
40538;DHT22;27925;41.874;12.526;2022-09-09T12:19:19;32.40;49.90
40538;DHT22;27925;41.874;12.526;2022-09-09T12:25:18;32.40;49.40
40538;DHT22;27925;41.874;12.526;2022-09-09T12:27:49;32.50;50.80
40538;DHT22;27925;41.874;12.526;2022-09-09T12:30:24;32.30;50.30
40538;DHT22;27925;41.874;12.526;2022-09-09T12:33:02;32.30;49.80
40538;DHT22;27925;41.874;12.526;2022-09-09T12:35:28;32.40;49.10
40538;DHT22;27925;41.874;12.526;2022-09-09T12:37:58;32.50;48.70
40538;DHT22;27925;41.874;12.526;2022-09-09T12:40:34;32.60;48.20
40538;DHT22;27925;41.874;12.526;2022-09-09T12:43:21;32.40;47.90
40538;DHT22;27925;41.874;12.526;2022-09-09T12:45:48;32.20;48.40
40538;DHT22;27925;41.874;12.526;2022-09-09T12:48:18;32.20;48.40
40538;DHT22;27925;41.874;12.526;2022-09-09T12:50:50;32.30;48.50
40538;DHT22;27925;41.874;12.526;2022-09-09T12:53:30;32.60;47.30
40538;DHT22;27925;41.874;12.526;2022-09-09T12:56:09;32.90;46.90
40538;DHT22;27925;41.874;12.526;2022-09-09T12:58:36;33.00;46.60
40538;DHT22;27925;41.874;12.526;2022-09-09T13:01:04;33.20;47.90
40538;DHT22;27925;41.874;12.526;2022-09-09T13:03:32;33.30;47.60
40538;DHT22;27925;41.874;12.526;2022-09-09T13:06:10;33.30;47.30
40538;DHT22;27925;41.874;12.526;2022-09-09T13:08:37;33.20;47.70
40538;DHT22;27925;41.874;12.526;2022-09-09T13:11:07;33.00;48.40
40538;DHT22;27925;41.874;12.526;2022-09-09T13:13:40;32.90;48.20
40538;DHT22;27925;41.874;12.526;2022-09-09T13:16:28;32.80;48.60
40538;DHT22;27925;41.874;12.526;2022-09-09T13:18:58;32.60;47.20
40538;DHT22;27925;41.874;12.526;2022-09-09T13:21:35;32.60;48.90
40538;DHT22;27925;41.874;12.526;2022-09-09T13:24:05;32.60;47.70
40538;DHT22;27925;41.874;12.526;2022-09-09T13:26:34;32.70;47.20
40538;DHT22;27925;41.874;12.526;2022-09-09T13:29:19;32.90;45.90
40538;DHT22;27925;41.874;12.526;2022-09-09T13:31:45;33.20;45.10
40538;DHT22;27925;41.874;12.526;2022-09-09T13:34:28;33.40;44.70
40538;DHT22;27925;41.874;12.526;2022-09-09T13:36:59;33.60;43.80
40538;DHT22;27925;41.874;12.526;2022-09-09T13:39:27;33.70;43.40
40538;DHT22;27925;41.874;12.526;2022-09-09T13:41:53;33.80;43.30
40538;DHT22;27925;41.874;12.526;2022-09-09T13:44:26;33.80;43.20
40538;DHT22;27925;41.874;12.526;2022-09-09T13:47:02;33.70;42.60
40538;DHT22;27925;41.874;12.526;2022-09-09T13:49:29;33.40;42.40
40538;DHT22;27925;41.874;12.526;2022-09-09T13:52:16;33.40;42.80
40538;DHT22;27925;41.874;12.526;2022-09-09T13:54:52;33.60;42.20
40538;DHT22;27925;41.874;12.526;2022-09-09T13:57:22;33.70;41.80
40538;DHT22;27925;41.874;12.526;2022-09-09T13:59:49;33.80;41.60
40538;DHT22;27925;41.874;12.526;2022-09-09T14:02:16;33.80;41.60
40538;DHT22;27925;41.874;12.526;2022-09-09T14:04:42;33.80;41.20
40538;DHT22;27925;41.874;12.526;2022-09-09T14:07:12;33.80;40.50
40538;DHT22;27925;41.874;12.526;2022-09-09T14:09:38;33.60;40.40
40538;DHT22;27925;41.874;12.526;2022-09-09T14:12:04;33.50;40.80
40538;DHT22;27925;41.874;12.526;2022-09-09T14:14:30;33.50;40.60
40538;DHT22;27925;41.874;12.526;2022-09-09T14:16:57;33.50;40.00
40538;DHT22;27925;41.874;12.526;2022-09-09T14:19:23;33.50;39.50
40538;DHT22;27925;41.874;12.526;2022-09-09T14:21:48;33.50;38.40
40538;DHT22;27925;41.874;12.526;2022-09-09T14:24:15;33.30;38.10
40538;DHT22;27925;41.874;12.526;2022-09-09T14:26:41;33.30;37.70
40538;DHT22;27925;41.874;12.526;2022-09-09T14:29:07;33.30;37.20
40538;DHT22;27925;41.874;12.526;2022-09-09T14:31:33;33.40;37.40
40538;DHT22;27925;41.874;12.526;2022-09-09T14:33:58;33.30;37.00
40538;DHT22;27925;41.874;12.526;2022-09-09T14:36:24;33.30;36.80
40538;DHT22;27925;41.874;12.526;2022-09-09T14:38:51;33.20;36.70
40538;DHT22;27925;41.874;12.526;2022-09-09T14:41:18;33.20;37.10
40538;DHT22;27925;41.874;12.526;2022-09-09T14:43:45;33.30;36.90
40538;DHT22;27925;41.874;12.526;2022-09-09T14:46:14;33.20;37.00
40538;DHT22;27925;41.874;12.526;2022-09-09T14:48:40;33.20;37.50
40538;DHT22;27925;41.874;12.526;2022-09-09T14:51:07;33.00;39.10
40538;DHT22;27925;41.874;12.526;2022-09-09T14:53:33;33.00;39.90
40538;DHT22;27925;41.874;12.526;2022-09-09T14:56:07;33.00;41.10
40538;DHT22;27925;41.874;12.526;2022-09-09T14:58:34;33.00;42.00
40538;DHT22;27925;41.874;12.526;2022-09-09T15:01:12;33.00;42.70
40538;DHT22;27925;41.874;12.526;2022-09-09T15:03:39;33.00;42.60
40538;DHT22;27925;41.874;12.526;2022-09-09T15:06:13;32.90;42.20
40538;DHT22;27925;41.874;12.526;2022-09-09T15:08:42;32.80;41.20
40538;DHT22;27925;41.874;12.526;2022-09-09T15:11:09;32.80;41.10
40538;DHT22;27925;41.874;12.526;2022-09-09T15:13:39;32.70;41.40
40538;DHT22;27925;41.874;12.526;2022-09-09T15:16:12;32.60;41.40
40538;DHT22;27925;41.874;12.526;2022-09-09T15:18:38;32.60;41.30
40538;DHT22;27925;41.874;12.526;2022-09-09T15:21:17;32.50;40.20
40538;DHT22;27925;41.874;12.526;2022-09-09T15:23:44;32.50;40.00
40538;DHT22;27925;41.874;12.526;2022-09-09T15:26:10;32.40;39.00
40538;DHT22;27925;41.874;12.526;2022-09-09T15:28:37;32.40;38.70
40538;DHT22;27925;41.874;12.526;2022-09-09T15:33:36;32.40;38.40
40538;DHT22;27925;41.874;12.526;2022-09-09T15:36:23;32.30;37.30
40538;DHT22;27925;41.874;12.526;2022-09-09T15:38:50;32.20;36.70
40538;DHT22;27925;41.874;12.526;2022-09-09T15:41:17;32.20;36.30
40538;DHT22;27925;41.874;12.526;2022-09-09T15:43:48;32.20;36.60
40538;DHT22;27925;41.874;12.526;2022-09-09T15:48:48;32.20;37.20
40538;DHT22;27925;41.874;12.526;2022-09-09T15:51:15;32.00;36.10
40538;DHT22;27925;41.874;12.526;2022-09-09T15:53:41;32.00;37.70
40538;DHT22;27925;41.874;12.526;2022-09-09T15:56:07;32.00;36.70
40538;DHT22;27925;41.874;12.526;2022-09-09T15:58:33;32.00;36.80
40538;DHT22;27925;41.874;12.526;2022-09-09T16:01:07;32.00;37.10
40538;DHT22;27925;41.874;12.526;2022-09-09T16:03:37;32.00;38.20
40538;DHT22;27925;41.874;12.526;2022-09-09T16:06:04;31.90;38.10
40538;DHT22;27925;41.874;12.526;2022-09-09T16:08:38;31.90;39.10
40538;DHT22;27925;41.874;12.526;2022-09-09T16:11:15;31.70;40.00
40538;DHT22;27925;41.874;12.526;2022-09-09T16:13:43;31.60;40.60
40538;DHT22;27925;41.874;12.526;2022-09-09T16:16:11;31.50;41.30
40538;DHT22;27925;41.874;12.526;2022-09-09T16:18:40;31.60;42.40
40538;DHT22;27925;41.874;12.526;2022-09-09T16:21:06;31.50;42.70
40538;DHT22;27925;41.874;12.526;2022-09-09T16:23:34;31.40;43.20
40538;DHT22;27925;41.874;12.526;2022-09-09T16:26:00;31.40;43.40
40538;DHT22;27925;41.874;12.526;2022-09-09T16:28:26;31.30;43.50
40538;DHT22;27925;41.874;12.526;2022-09-09T16:30:53;31.20;43.80
40538;DHT22;27925;41.874;12.526;2022-09-09T16:33:19;31.10;43.70
40538;DHT22;27925;41.874;12.526;2022-09-09T16:35:44;31.00;44.20
40538;DHT22;27925;41.874;12.526;2022-09-09T16:38:11;30.90;43.90
40538;DHT22;27925;41.874;12.526;2022-09-09T16:40:38;30.90;44.00
40538;DHT22;27925;41.874;12.526;2022-09-09T16:43:05;30.90;44.10
40538;DHT22;27925;41.874;12.526;2022-09-09T16:45:32;30.90;43.80
40538;DHT22;27925;41.874;12.526;2022-09-09T16:47:59;30.90;43.80
40538;DHT22;27925;41.874;12.526;2022-09-09T16:50:26;30.80;44.60
40538;DHT22;27925;41.874;12.526;2022-09-09T16:52:52;30.80;44.80
40538;DHT22;27925;41.874;12.526;2022-09-09T16:55:18;30.70;45.00
40538;DHT22;27925;41.874;12.526;2022-09-09T16:57:46;30.70;45.20
40538;DHT22;27925;41.874;12.526;2022-09-09T17:00:15;30.60;45.30
40538;DHT22;27925;41.874;12.526;2022-09-09T17:02:45;30.60;44.90
40538;DHT22;27925;41.874;12.526;2022-09-09T17:05:11;30.50;45.30
40538;DHT22;27925;41.874;12.526;2022-09-09T17:07:38;30.30;45.40
40538;DHT22;27925;41.874;12.526;2022-09-09T17:10:05;30.20;45.70
40538;DHT22;27925;41.874;12.526;2022-09-09T17:12:31;30.10;45.80
40538;DHT22;27925;41.874;12.526;2022-09-09T17:14:57;30.00;46.30
40538;DHT22;27925;41.874;12.526;2022-09-09T17:17:25;29.90;46.40
40538;DHT22;27925;41.874;12.526;2022-09-09T17:19:52;29.90;47.50
40538;DHT22;27925;41.874;12.526;2022-09-09T17:22:18;29.80;48.80
40538;DHT22;27925;41.874;12.526;2022-09-09T17:24:47;29.70;49.50
40538;DHT22;27925;41.874;12.526;2022-09-09T17:27:13;29.70;50.00
40538;DHT22;27925;41.874;12.526;2022-09-09T17:29:39;29.70;51.10
40538;DHT22;27925;41.874;12.526;2022-09-09T17:32:05;29.60;51.40
40538;DHT22;27925;41.874;12.526;2022-09-09T17:34:33;29.50;51.90
40538;DHT22;27925;41.874;12.526;2022-09-09T17:36:58;29.50;52.60
40538;DHT22;27925;41.874;12.526;2022-09-09T17:39:24;29.40;53.60
40538;DHT22;27925;41.874;12.526;2022-09-09T17:41:52;29.40;52.30
40538;DHT22;27925;41.874;12.526;2022-09-09T17:44:18;29.30;53.70
40538;DHT22;27925;41.874;12.526;2022-09-09T17:46:47;29.30;54.00
40538;DHT22;27925;41.874;12.526;2022-09-09T17:49:15;29.20;54.40
40538;DHT22;27925;41.874;12.526;2022-09-09T17:51:44;29.20;55.40
40538;DHT22;27925;41.874;12.526;2022-09-09T17:54:18;29.10;55.80
40538;DHT22;27925;41.874;12.526;2022-09-09T17:56:46;29.10;55.30
40538;DHT22;27925;41.874;12.526;2022-09-09T17:59:14;29.10;55.40
40538;DHT22;27925;41.874;12.526;2022-09-09T18:01:42;29.00;57.10
40538;DHT22;27925;41.874;12.526;2022-09-09T18:04:13;29.00;57.40
40538;DHT22;27925;41.874;12.526;2022-09-09T18:06:42;28.90;57.70
40538;DHT22;27925;41.874;12.526;2022-09-09T18:09:10;28.90;58.00
40538;DHT22;27925;41.874;12.526;2022-09-09T18:11:41;28.90;58.50
40538;DHT22;27925;41.874;12.526;2022-09-09T18:14:09;28.80;59.00